Terminal Aerodrome Forecast
Issued by NWS

Home | Current Version | Previous Version | Text Only | Print | Product List | Glossary On
Versions: 1 2 3 4 5 6 7 8 9 10 11 12 13 14 15 16 17 18 19 20 21 22 23 24 25 26 27 28
000
FTUS41 KOKX 221433 AAB
TAFHPN
TAF AMD
KHPN 221433Z 2215/2312 06003KT 5SM BR SCT010 OVC025
     FM221600 06003KT 5SM -DZ BR SCT007 BKN015
     FM221800 06003KT 3SM -DZRA BR BKN007
     FM222300 VRB03KT 3/4SM BR BKN004
     FM231100 16008KT 1SM SHRA BR OVC004 WS020/21050KT
      AMD NOT SKED=

USA.gov is the U.S. government's official web portal to all federal, state and local government web resources and services.